Time;durP1;ratioP1;P1;durP2;ratioP2;P2;SDS_P1;SDS_P2;PMS_P1;PMS_P2;Temp;Humidity;BMP_temperature;BMP_pressure;BME280_temperature;BME280_humidity;BME280_pressure;Samples;Min_cycle;Max_cycle;Signal;HPM_P1;HPM_P2
2022/06/28 00:01:25;;;;;;;8.00;7.20;;;;;;;;;;768624;181;889001;-72
2022/06/28 00:03:51;;;;;;;13.50;7.90;;;;;;;;;;765845;181;919026;-71
2022/06/28 00:06:16;;;;;;;8.60;7.00;;;;;;;;;;766566;181;928730;-71
2022/06/28 00:08:42;;;;;;;10.70;7.40;;;;;;;;;;766575;183;918627;-71
2022/06/28 00:11:08;;;;;;;9.83;7.23;;;;;;;;;;757060;183;918980;-71
2022/06/28 00:13:34;;;;;;;15.43;8.10;;;;;;;;;;767867;180;919060;-71
2022/06/28 00:16:05;;;;;;;12.85;8.02;;;;;;;;;;774055;181;918129;-71
2022/06/28 00:18:31;;;;;;;10.87;7.63;;;;;;;;;;764970;183;918203;-70
2022/06/28 00:20:56;;;;;;;9.52;8.20;;;;;;;;;;765154;181;918984;-72
2022/06/28 00:23:22;;;;;;;13.50;9.57;;;;;;;;;;769024;181;918938;-70
2022/06/28 00:25:48;;;;;;;9.73;7.03;;;;;;;;;;777330;181;919361;-71
2022/06/28 00:28:14;;;;;;;12.20;8.20;;;;;;;;;;761129;181;918138;-70
2022/06/28 00:30:40;;;;;;;10.20;8.50;;;;;;;;;;768057;181;919779;-70
2022/06/28 00:33:06;;;;;;;12.98;8.68;;;;;;;;;;777128;180;918789;-71
2022/06/28 00:35:31;;;;;;;15.17;8.83;;;;;;;;;;767287;181;1081265;-71
2022/06/28 00:37:57;;;;;;;10.13;8.40;;;;;;;;;;762852;181;919671;-71
2022/06/28 00:40:23;;;;;;;11.00;8.43;;;;;;;;;;762004;183;917931;-71
2022/06/28 00:42:49;;;;;;;13.50;8.90;;;;;;;;;;762243;184;918500;-71
2022/06/28 00:45:15;;;;;;;12.23;8.85;;;;;;;;;;770757;180;919262;-72
2022/06/28 00:47:41;;;;;;;11.20;9.77;;;;;;;;;;772429;180;918768;-69
2022/06/28 00:50:07;;;;;;;12.20;8.27;;;;;;;;;;776279;181;916862;-71
2022/06/28 00:52:33;;;;;;;10.87;8.63;;;;;;;;;;771507;181;919258;-72
2022/06/28 00:54:59;;;;;;;18.97;9.60;;;;;;;;;;774106;180;917548;-71
2022/06/28 00:57:25;;;;;;;9.87;8.87;;;;;;;;;;769970;180;916421;-70
2022/06/28 00:59:50;;;;;;;12.50;9.20;;;;;;;;;;767488;181;915832;-70
2022/06/28 01:02:16;;;;;;;9.60;8.57;;;;;;;;;;773848;180;915542;-69
2022/06/28 01:04:43;;;;;;;14.83;8.40;;;;;;;;;;772130;180;914243;-69
2022/06/28 01:07:08;;;;;;;12.53;8.00;;;;;;;;;;773689;181;915833;-71
2022/06/28 01:09:34;;;;;;;10.33;8.00;;;;;;;;;;771305;180;915410;-70
2022/06/28 01:12:00;;;;;;;14.47;8.30;;;;;;;;;;758828;183;918822;-71
2022/06/28 01:14:25;;;;;;;9.47;8.27;;;;;;;;;;766062;181;918071;-70
2022/06/28 01:16:51;;;;;;;15.40;9.00;;;;;;;;;;767810;181;919211;-70
2022/06/28 01:19:17;;;;;;;18.43;8.60;;;;;;;;;;766592;181;918988;-70
2022/06/28 01:21:43;;;;;;;16.20;9.97;;;;;;;;;;776209;181;920038;-71
2022/06/28 01:24:09;;;;;;;9.85;8.77;;;;;;;;;;772432;180;918925;-71
2022/06/28 01:26:35;;;;;;;13.00;8.77;;;;;;;;;;771807;180;918823;-70
2022/06/28 01:29:00;;;;;;;20.13;9.27;;;;;;;;;;778533;180;918245;-70
2022/06/28 01:31:26;;;;;;;13.85;8.35;;;;;;;;;;771483;180;929281;-70
2022/06/28 01:33:52;;;;;;;13.27;9.30;;;;;;;;;;766895;181;919949;-70
2022/06/28 01:36:18;;;;;;;19.52;9.70;;;;;;;;;;770051;181;918277;-70
2022/06/28 01:38:44;;;;;;;13.47;8.33;;;;;;;;;;773123;180;919014;-71
2022/06/28 01:41:32;;;;;;;16.77;8.73;;;;;;;;;;768623;181;919416;-70
2022/06/28 01:43:36;;;;;;;15.17;10.07;;;;;;;;;;767037;181;919518;-69
2022/06/28 01:46:01;;;;;;;13.17;9.57;;;;;;;;;;765438;181;919829;-70
2022/06/28 01:48:27;;;;;;;13.73;10.17;;;;;;;;;;765392;181;918851;-69
2022/06/28 01:50:53;;;;;;;14.40;10.30;;;;;;;;;;771399;180;919217;-70
2022/06/28 01:53:19;;;;;;;13.80;9.83;;;;;;;;;;767489;180;918784;-70
2022/06/28 01:55:45;;;;;;;13.60;9.47;;;;;;;;;;763210;180;918916;-70
2022/06/28 01:58:11;;;;;;;19.73;11.67;;;;;;;;;;762465;182;919747;-70
2022/06/28 02:00:37;;;;;;;20.23;10.60;;;;;;;;;;766705;180;933793;-70
2022/06/28 02:03:02;;;;;;;12.33;9.47;;;;;;;;;;768869;182;919503;-69
2022/06/28 02:05:29;;;;;;;11.00;9.00;;;;;;;;;;768388;180;918725;-71
2022/06/28 02:07:55;;;;;;;16.63;10.57;;;;;;;;;;770341;181;919662;-69
2022/06/28 02:10:20;;;;;;;11.70;8.70;;;;;;;;;;774049;181;918726;-70
2022/06/28 02:12:46;;;;;;;11.87;9.23;;;;;;;;;;769594;181;918806;-70
2022/06/28 02:15:13;;;;;;;13.37;7.77;;;;;;;;;;769215;181;937246;-70
2022/06/28 02:17:40;;;;;;;11.37;8.70;;;;;;;;;;774025;180;918861;-70
2022/06/28 02:20:06;;;;;;;14.33;9.27;;;;;;;;;;768100;181;999094;-70
2022/06/28 02:22:32;;;;;;;17.80;8.50;;;;;;;;;;760200;182;919537;-70
2022/06/28 02:24:58;;;;;;;19.10;10.87;;;;;;;;;;769661;180;918799;-70
2022/06/28 02:27:23;;;;;;;11.97;9.10;;;;;;;;;;758112;184;919340;-70
2022/06/28 02:29:49;;;;;;;13.63;10.40;;;;;;;;;;771321;180;918741;-70
2022/06/28 02:32:15;;;;;;;16.23;10.00;;;;;;;;;;768997;181;919342;-70
2022/06/28 02:42:16;;;;;;;13.33;11.10;;;;;;;;;;760771;180;918692;-71
2022/06/28 02:44:42;;;;;;;18.83;10.80;;;;;;;;;;775348;181;635598;-70
2022/06/28 02:47:08;;;;;;;19.20;10.90;;;;;;;;;;769622;182;630521;-71
2022/06/28 02:49:34;;;;;;;20.13;11.10;;;;;;;;;;767038;181;904395;-70
2022/06/28 02:51:59;;;;;;;16.07;11.90;;;;;;;;;;763384;182;919434;-70
2022/06/28 02:54:25;;;;;;;18.50;13.03;;;;;;;;;;759254;182;919879;-71
2022/06/28 02:56:51;;;;;;;16.13;12.30;;;;;;;;;;768166;181;1028489;-70
2022/06/28 02:59:17;;;;;;;14.83;12.63;;;;;;;;;;769546;180;915496;-70
2022/06/28 03:01:43;;;;;;;13.83;11.90;;;;;;;;;;773742;179;918239;-71
2022/06/28 03:04:09;;;;;;;15.67;14.13;;;;;;;;;;769515;180;916196;-71
2022/06/28 03:06:34;;;;;;;18.70;12.30;;;;;;;;;;768030;181;922197;-72
2022/06/28 03:09:00;;;;;;;18.60;12.70;;;;;;;;;;775754;180;914625;-70
2022/06/28 03:11:26;;;;;;;15.00;11.23;;;;;;;;;;773364;179;915515;-71
2022/06/28 03:13:52;;;;;;;20.27;14.60;;;;;;;;;;771259;180;919242;-71
2022/06/28 03:16:18;;;;;;;16.17;13.00;;;;;;;;;;773103;180;915703;-71
2022/06/28 03:18:44;;;;;;;14.50;12.40;;;;;;;;;;769042;181;916018;-71
2022/06/28 03:21:09;;;;;;;15.98;12.77;;;;;;;;;;767176;180;915256;-71
2022/06/28 03:23:35;;;;;;;21.53;14.33;;;;;;;;;;765153;181;916524;-71
2022/06/28 03:26:01;;;;;;;16.50;12.40;;;;;;;;;;769853;181;915964;-71
2022/06/28 03:28:28;;;;;;;17.05;12.40;;;;;;;;;;763839;180;915847;-71
2022/06/28 03:54:14;;;;;;;12.00;10.73;;;;;;;;;;785276;172;1022060;-70
2022/06/28 03:56:40;;;;;;;11.60;10.03;;;;;;;;;;767403;182;920190;-72
2022/06/28 03:59:06;;;;;;;11.73;9.27;;;;;;;;;;755201;184;1025739;-71
2022/06/28 04:01:32;;;;;;;14.47;10.50;;;;;;;;;;752244;184;919322;-71
2022/06/28 04:03:58;;;;;;;16.63;11.07;;;;;;;;;;763637;183;919525;-63
2022/06/28 04:06:24;;;;;;;19.73;11.93;;;;;;;;;;764669;182;1020683;-64
2022/06/28 04:08:49;;;;;;;22.27;14.35;;;;;;;;;;765129;182;919878;-64
2022/06/28 04:11:16;;;;;;;26.83;14.20;;;;;;;;;;771257;182;911402;-67
2022/06/28 04:13:42;;;;;;;20.07;13.20;;;;;;;;;;765609;183;630326;-70
2022/06/28 04:16:08;;;;;;;22.10;13.80;;;;;;;;;;765008;182;918694;-70
2022/06/28 04:18:34;;;;;;;20.80;14.30;;;;;;;;;;764638;182;918894;-71
2022/06/28 04:20:59;;;;;;;20.37;13.30;;;;;;;;;;769533;182;918963;-71
2022/06/28 04:23:25;;;;;;;22.27;13.30;;;;;;;;;;763234;183;918939;-75
2022/06/28 04:25:51;;;;;;;21.37;13.70;;;;;;;;;;763570;183;1022152;-73
2022/06/28 04:28:17;;;;;;;21.27;14.77;;;;;;;;;;769138;182;671132;-72
2022/06/28 04:30:43;;;;;;;26.30;14.73;;;;;;;;;;764659;183;918969;-74
2022/06/28 04:33:09;;;;;;;22.83;14.70;;;;;;;;;;767499;182;919088;-73
2022/06/28 04:35:35;;;;;;;28.00;14.33;;;;;;;;;;767322;182;918840;-73
2022/06/28 04:38:01;;;;;;;23.20;14.70;;;;;;;;;;761520;182;918664;-73
2022/06/28 04:40:27;;;;;;;20.20;13.43;;;;;;;;;;761356;182;918565;-73
2022/06/28 04:42:53;;;;;;;14.17;12.77;;;;;;;;;;762668;182;922570;-74
2022/06/28 04:45:19;;;;;;;14.83;12.47;;;;;;;;;;764707;183;918767;-73
2022/06/28 04:47:44;;;;;;;13.77;11.50;;;;;;;;;;761840;181;919092;-71
2022/06/28 04:50:10;;;;;;;22.53;12.10;;;;;;;;;;765666;182;918682;-72
2022/06/28 04:52:36;;;;;;;20.80;14.27;;;;;;;;;;769706;182;919257;-72
2022/06/28 04:55:02;;;;;;;15.57;13.97;;;;;;;;;;766337;182;919077;-72
2022/06/28 04:57:28;;;;;;;22.27;13.80;;;;;;;;;;767489;182;637003;-73
2022/06/28 04:59:54;;;;;;;16.43;13.30;;;;;;;;;;769470;183;636482;-73
2022/06/28 05:02:19;;;;;;;16.10;12.90;;;;;;;;;;765031;182;647174;-74
2022/06/28 05:04:46;;;;;;;13.77;12.33;;;;;;;;;;767408;182;617554;-73
2022/06/28 05:07:11;;;;;;;18.20;13.40;;;;;;;;;;766257;182;919054;-73
2022/06/28 05:09:37;;;;;;;15.90;12.33;;;;;;;;;;772361;182;621733;-74
2022/06/28 05:12:03;;;;;;;15.77;12.70;;;;;;;;;;766211;182;924429;-75
2022/06/28 05:14:29;;;;;;;16.13;12.60;;;;;;;;;;764053;182;1020985;-75
2022/06/28 05:16:55;;;;;;;13.93;12.47;;;;;;;;;;770365;182;918212;-74
2022/06/28 05:19:21;;;;;;;19.43;12.43;;;;;;;;;;768035;182;817256;-74
2022/06/28 05:21:47;;;;;;;14.30;12.80;;;;;;;;;;765369;180;919030;-74
2022/06/28 05:24:12;;;;;;;14.27;12.17;;;;;;;;;;769195;182;925659;-73
2022/06/28 05:26:38;;;;;;;17.40;12.50;;;;;;;;;;764172;182;919080;-74
2022/06/28 05:29:04;;;;;;;20.80;14.27;;;;;;;;;;763130;182;919093;-75
2022/06/28 05:31:30;;;;;;;17.93;14.10;;;;;;;;;;771975;182;631118;-74
2022/06/28 05:33:56;;;;;;;18.33;15.53;;;;;;;;;;764682;182;919213;-74
2022/06/28 05:36:22;;;;;;;15.10;13.23;;;;;;;;;;766241;182;638649;-75
2022/06/28 05:38:48;;;;;;;22.23;16.00;;;;;;;;;;762462;182;918063;-75
2022/06/28 05:41:13;;;;;;;16.00;14.30;;;;;;;;;;771200;182;943782;-75
2022/06/28 05:43:39;;;;;;;20.13;15.20;;;;;;;;;;763672;182;918172;-75
2022/06/28 05:46:05;;;;;;;15.83;14.17;;;;;;;;;;762765;182;1020631;-75
2022/06/28 05:48:31;;;;;;;19.40;13.63;;;;;;;;;;767374;182;918664;-76
2022/06/28 05:50:57;;;;;;;14.57;13.17;;;;;;;;;;765833;182;919077;-75
2022/06/28 05:53:23;;;;;;;13.87;12.27;;;;;;;;;;762805;181;920892;-75
2022/06/28 05:55:49;;;;;;;14.87;10.93;;;;;;;;;;769158;182;810026;-75
2022/06/28 05:58:15;;;;;;;17.83;12.30;;;;;;;;;;761905;182;1022095;-75
2022/06/28 06:00:40;;;;;;;17.33;13.57;;;;;;;;;;764718;182;919065;-75
2022/06/28 06:03:06;;;;;;;19.17;12.10;;;;;;;;;;765324;182;917607;-75
2022/06/28 06:05:32;;;;;;;13.33;11.93;;;;;;;;;;764310;183;1021758;-75
2022/06/28 06:07:58;;;;;;;15.53;13.80;;;;;;;;;;754465;182;919656;-76
2022/06/28 06:10:24;;;;;;;15.53;13.63;;;;;;;;;;761669;182;919984;-75
2022/06/28 06:12:50;;;;;;;13.10;11.70;;;;;;;;;;769044;182;917676;-76
2022/06/28 06:15:16;;;;;;;16.17;12.70;;;;;;;;;;758316;182;713412;-75
2022/06/28 06:17:41;;;;;;;14.10;11.70;;;;;;;;;;768589;182;919001;-77
2022/06/28 06:20:08;;;;;;;12.67;10.97;;;;;;;;;;770940;182;652820;-75
2022/06/28 06:22:34;;;;;;;15.73;12.60;;;;;;;;;;767347;180;918338;-78
2022/06/28 06:24:59;;;;;;;12.63;11.23;;;;;;;;;;767159;182;817718;-78
2022/06/28 06:27:25;;;;;;;13.77;12.37;;;;;;;;;;767207;182;918489;-75
2022/06/28 06:29:51;;;;;;;13.10;11.83;;;;;;;;;;760153;184;917589;-77
2022/06/28 06:32:17;;;;;;;17.40;11.40;;;;;;;;;;764384;183;918774;-77
2022/06/28 06:34:43;;;;;;;16.58;11.63;;;;;;;;;;761627;184;825660;-77
2022/06/28 06:37:09;;;;;;;15.30;11.50;;;;;;;;;;771411;183;641259;-77
2022/06/28 06:39:35;;;;;;;13.70;11.80;;;;;;;;;;763323;182;918946;-77
2022/06/28 06:42:01;;;;;;;13.47;11.50;;;;;;;;;;761544;183;915996;-78
2022/06/28 06:44:26;;;;;;;14.77;11.80;;;;;;;;;;766645;183;1017853;-75
2022/06/28 06:46:52;;;;;;;20.47;15.20;;;;;;;;;;764677;182;1038880;-78
2022/06/28 06:49:18;;;;;;;15.93;11.45;;;;;;;;;;765146;182;916447;-77
2022/06/28 06:51:44;;;;;;;13.07;11.10;;;;;;;;;;764379;182;1020067;-76
2022/06/28 06:54:10;;;;;;;12.00;10.83;;;;;;;;;;764515;182;1004233;-77
2022/06/28 06:56:36;;;;;;;12.83;11.53;;;;;;;;;;760310;183;1019927;-76
2022/06/28 06:59:02;;;;;;;13.70;12.30;;;;;;;;;;754548;183;629448;-75
2022/06/28 07:01:29;;;;;;;11.30;10.20;;;;;;;;;;767884;182;1021444;-74
2022/06/28 07:03:53;;;;;;;14.13;11.17;;;;;;;;;;768492;183;629119;-73
2022/06/28 07:06:19;;;;;;;15.47;11.73;;;;;;;;;;768210;183;614250;-74
2022/06/28 07:08:45;;;;;;;19.83;9.90;;;;;;;;;;763625;183;938251;-73
2022/06/28 07:11:11;;;;;;;12.87;10.43;;;;;;;;;;767196;183;704280;-75
2022/06/28 07:13:37;;;;;;;15.03;10.23;;;;;;;;;;766214;184;637889;-75
2022/06/28 07:16:03;;;;;;;11.60;9.83;;;;;;;;;;769012;183;626952;-75
2022/06/28 07:18:29;;;;;;;12.60;11.30;;;;;;;;;;765361;183;631047;-75
2022/06/28 07:20:55;;;;;;;12.43;10.40;;;;;;;;;;767246;182;633744;-76
2022/06/28 07:23:20;;;;;;;10.60;9.50;;;;;;;;;;766289;182;735666;-74
2022/06/28 07:25:46;;;;;;;15.23;10.43;;;;;;;;;;766409;184;654328;-76
2022/06/28 07:28:12;;;;;;;11.40;10.20;;;;;;;;;;770014;181;630174;-75
2022/06/28 07:30:38;;;;;;;13.27;9.93;;;;;;;;;;770512;182;638540;-75
2022/06/28 07:33:04;;;;;;;10.30;9.10;;;;;;;;;;770587;182;619476;-75
2022/06/28 07:35:29;;;;;;;10.53;9.40;;;;;;;;;;765583;183;1020901;-75
2022/06/28 07:37:55;;;;;;;11.67;9.23;;;;;;;;;;767304;182;916750;-74
2022/06/28 07:40:21;;;;;;;14.80;12.40;;;;;;;;;;769897;182;918269;-74
2022/06/28 07:42:47;;;;;;;15.87;10.23;;;;;;;;;;761326;183;1122624;-74
2022/06/28 07:45:13;;;;;;;11.43;10.23;;;;;;;;;;762537;183;1022465;-74
2022/06/28 07:47:39;;;;;;;12.97;10.80;;;;;;;;;;762058;184;919657;-74
2022/06/28 07:52:37;;;;;;;12.60;9.87;;;;;;;;;;764167;183;919294;-75
2022/06/28 07:55:04;;;;;;;12.83;10.37;;;;;;;;;;768968;183;643993;-76
2022/06/28 07:57:29;;;;;;;16.20;11.80;;;;;;;;;;771231;182;647319;-76
2022/06/28 07:59:55;;;;;;;19.40;12.67;;;;;;;;;;759937;184;918880;-75
2022/06/28 08:02:22;;;;;;;13.80;10.53;;;;;;;;;;761193;182;919361;-75
2022/06/28 08:04:47;;;;;;;12.90;10.97;;;;;;;;;;764519;184;616113;-73
2022/06/28 08:07:13;;;;;;;12.37;11.17;;;;;;;;;;754391;183;919233;-74
2022/06/28 08:09:39;;;;;;;13.40;11.87;;;;;;;;;;765554;182;919325;-74
2022/06/28 08:12:05;;;;;;;13.27;11.97;;;;;;;;;;768381;182;637992;-73
2022/06/28 08:14:31;;;;;;;12.97;11.70;;;;;;;;;;774217;182;627995;-74
2022/06/28 08:16:57;;;;;;;14.93;13.43;;;;;;;;;;768997;182;625274;-74
2022/06/28 08:19:22;;;;;;;16.57;11.97;;;;;;;;;;769071;182;617475;-77
2022/06/28 08:21:49;;;;;;;14.60;12.03;;;;;;;;;;764982;183;917848;-75
2022/06/28 08:24:14;;;;;;;12.00;10.90;;;;;;;;;;762981;183;644424;-77
2022/06/28 08:26:42;;;;;;;11.68;10.25;;;;;;;;;;760712;183;903884;-76
2022/06/28 08:29:07;;;;;;;13.47;12.13;;;;;;;;;;763385;183;915993;-74
2022/06/28 08:31:33;;;;;;;12.90;10.10;;;;;;;;;;763603;183;629707;-77
2022/06/28 08:33:59;;;;;;;12.73;11.43;;;;;;;;;;761364;184;615241;-77
2022/06/28 08:36:24;;;;;;;13.07;10.53;;;;;;;;;;760642;184;648863;-77
2022/06/28 08:38:50;;;;;;;19.90;11.53;;;;;;;;;;772314;181;642511;-75
2022/06/28 08:41:16;;;;;;;11.80;10.60;;;;;;;;;;770680;182;643096;-73
2022/06/28 08:43:42;;;;;;;13.70;10.20;;;;;;;;;;768299;182;929113;-76
2022/06/28 08:46:08;;;;;;;11.37;10.23;;;;;;;;;;772142;182;632989;-77
2022/06/28 08:48:35;;;;;;;13.60;12.10;;;;;;;;;;770446;183;628441;-75
2022/06/28 08:51:01;;;;;;;12.90;11.60;;;;;;;;;;766405;183;640129;-73
2022/06/28 08:53:26;;;;;;;17.47;13.07;;;;;;;;;;768835;183;624639;-76
2022/06/28 08:55:52;;;;;;;12.70;10.60;;;;;;;;;;766983;183;625743;-76
2022/06/28 08:58:18;;;;;;;12.40;11.13;;;;;;;;;;767440;182;872932;-75
2022/06/28 09:00:44;;;;;;;17.47;12.60;;;;;;;;;;765677;182;919099;-72
2022/06/28 09:03:10;;;;;;;16.40;11.70;;;;;;;;;;772732;182;643219;-73
2022/06/28 09:05:36;;;;;;;13.97;11.87;;;;;;;;;;767970;182;919240;-70
2022/06/28 09:08:02;;;;;;;17.60;14.47;;;;;;;;;;767947;182;623520;-68
2022/06/28 09:10:28;;;;;;;20.60;15.30;;;;;;;;;;770316;183;617302;-71
2022/06/28 09:12:59;;;;;;;15.40;13.80;;;;;;;;;;762682;182;1021893;-70
2022/06/28 09:15:25;;;;;;;15.33;13.80;;;;;;;;;;763248;182;918213;-72
2022/06/28 09:17:53;;;;;;;20.73;18.60;;;;;;;;;;764684;182;919204;-72
2022/06/28 09:20:19;;;;;;;20.17;18.07;;;;;;;;;;771947;182;638037;-72
2022/06/28 09:22:45;;;;;;;21.13;19.13;;;;;;;;;;765750;182;629379;-72
2022/06/28 09:25:12;;;;;;;19.17;17.17;;;;;;;;;;767250;182;633125;-74
2022/06/28 09:27:37;;;;;;;19.67;17.70;;;;;;;;;;770743;182;614171;-74
2022/06/28 09:30:04;;;;;;;21.93;17.00;;;;;;;;;;764291;182;919291;-71
2022/06/28 09:32:30;;;;;;;20.33;18.37;;;;;;;;;;766511;182;816349;-73
2022/06/28 09:34:56;;;;;;;17.93;16.13;;;;;;;;;;763899;182;919258;-71
2022/06/28 09:37:28;;;;;;;20.13;18.13;;;;;;;;;;760819;184;946994;-70
2022/06/28 09:39:54;;;;;;;37.83;19.80;;;;;;;;;;760116;182;919936;-69
2022/06/28 09:42:20;;;;;;;21.42;19.42;;;;;;;;;;766904;181;711864;-70
2022/06/28 09:44:53;;;;;;;22.57;19.20;;;;;;;;;;763955;183;915286;-70
2022/06/28 09:47:19;;;;;;;22.23;19.40;;;;;;;;;;769925;183;631428;-71
2022/06/28 09:49:46;;;;;;;19.83;17.73;;;;;;;;;;760813;181;935444;-71
2022/06/28 09:52:12;;;;;;;22.20;20.20;;;;;;;;;;766756;182;626885;-70
2022/06/28 09:54:38;;;;;;;28.07;24.23;;;;;;;;;;770510;182;907661;-70
2022/06/28 09:57:04;;;;;;;24.80;21.90;;;;;;;;;;765130;182;919276;-72
2022/06/28 09:59:30;;;;;;;23.20;20.90;;;;;;;;;;768178;182;629128;-70
2022/06/28 10:01:56;;;;;;;24.30;21.77;;;;;;;;;;772867;182;619039;-71
2022/06/28 10:04:22;;;;;;;19.77;17.87;;;;;;;;;;770076;182;625279;-71
2022/06/28 10:06:48;;;;;;;18.02;16.12;;;;;;;;;;765892;182;918897;-73
2022/06/28 10:09:13;;;;;;;18.97;17.00;;;;;;;;;;757982;183;948189;-71
2022/06/28 10:16:46;;;;;;;25.10;22.40;;;;;;;;;;755899;184;917518;-70
2022/06/28 10:19:11;;;;;;;25.50;19.20;;;;;;;;;;764869;182;745537;-69
2022/06/28 10:21:43;;;;;;;26.77;21.05;;;;;;;;;;768683;182;720619;-72
2022/06/28 10:24:09;;;;;;;22.20;19.90;;;;;;;;;;768335;182;655278;-71
2022/06/28 10:26:35;;;;;;;22.40;20.00;;;;;;;;;;766219;182;633472;-71
2022/06/28 10:29:02;;;;;;;23.03;20.60;;;;;;;;;;771521;182;627475;-71
2022/06/28 10:31:31;;;;;;;21.27;18.47;;;;;;;;;;770935;182;633534;-71
2022/06/28 10:33:57;;;;;;;23.43;19.03;;;;;;;;;;761861;183;919837;-71
2022/06/28 10:36:24;;;;;;;21.50;19.00;;;;;;;;;;763289;182;920109;-71
2022/06/28 10:39:07;;;;;;;22.33;19.90;;;;;;;;;;772598;182;625112;-70
2022/06/28 10:41:36;;;;;;;21.63;19.60;;;;;;;;;;761464;182;905737;-72
2022/06/28 10:44:05;;;;;;;23.93;20.80;;;;;;;;;;766215;182;639766;-72
2022/06/28 10:46:31;;;;;;;26.90;22.30;;;;;;;;;;770352;180;652414;-72
2022/06/28 10:48:59;;;;;;;25.00;20.13;;;;;;;;;;767487;182;663744;-71
2022/06/28 10:51:25;;;;;;;22.53;20.27;;;;;;;;;;771520;182;621267;-72
2022/06/28 10:54:01;;;;;;;22.97;19.90;;;;;;;;;;767067;182;634782;-72
2022/06/28 10:56:27;;;;;;;25.03;19.67;;;;;;;;;;765673;183;755259;-69
2022/06/28 10:58:55;;;;;;;22.60;18.47;;;;;;;;;;768232;182;631973;-69
2022/06/28 11:01:20;;;;;;;21.40;19.10;;;;;;;;;;770571;181;624935;-69
2022/06/28 11:03:52;;;;;;;25.70;20.17;;;;;;;;;;767712;182;623772;-71
2022/06/28 11:06:18;;;;;;;23.00;20.50;;;;;;;;;;768797;182;625042;-71
2022/06/28 11:08:45;;;;;;;24.07;21.47;;;;;;;;;;765686;182;919354;-72
2022/06/28 11:11:10;;;;;;;22.83;20.60;;;;;;;;;;770878;182;919050;-71
2022/06/28 11:13:36;;;;;;;25.90;23.20;;;;;;;;;;768341;182;918912;-72
2022/06/28 11:16:02;;;;;;;24.50;21.70;;;;;;;;;;768510;182;627953;-71
2022/06/28 11:18:29;;;;;;;24.20;21.47;;;;;;;;;;770733;182;624527;-70
2022/06/28 11:20:54;;;;;;;26.60;22.17;;;;;;;;;;762615;183;902052;-70
2022/06/28 11:23:24;;;;;;;24.47;19.77;;;;;;;;;;765815;183;616293;-70
2022/06/28 11:28:21;;;;;;;27.83;21.50;;;;;;;;;;768605;180;919223;-69
2022/06/28 11:30:48;;;;;;;21.30;19.07;;;;;;;;;;758506;182;1022210;-68
2022/06/28 11:33:14;;;;;;;19.70;17.07;;;;;;;;;;766511;182;785339;-71
2022/06/28 11:35:40;;;;;;;23.20;20.20;;;;;;;;;;769772;183;919225;-73
2022/06/28 11:38:06;;;;;;;21.40;19.30;;;;;;;;;;764327;182;919182;-70
2022/06/28 11:40:38;;;;;;;19.63;16.73;;;;;;;;;;760399;182;919396;-71
2022/06/28 11:43:06;;;;;;;18.73;16.83;;;;;;;;;;763733;182;815852;-70
2022/06/28 11:45:32;;;;;;;17.97;16.07;;;;;;;;;;771078;183;631817;-72
2022/06/28 11:47:57;;;;;;;17.87;15.90;;;;;;;;;;768804;182;648025;-71
2022/06/28 11:50:23;;;;;;;16.90;15.20;;;;;;;;;;768994;183;626680;-71
2022/06/28 11:52:49;;;;;;;14.53;13.03;;;;;;;;;;771735;182;618417;-71
2022/06/28 11:55:15;;;;;;;16.80;15.20;;;;;;;;;;765824;182;929349;-71
2022/06/28 11:57:41;;;;;;;16.30;14.70;;;;;;;;;;759179;183;919513;-70
2022/06/28 12:00:07;;;;;;;16.87;15.10;;;;;;;;;;766000;182;634289;-72
2022/06/28 12:02:37;;;;;;;15.50;14.00;;;;;;;;;;769444;182;920060;-70
2022/06/28 12:05:03;;;;;;;16.43;14.70;;;;;;;;;;767052;183;632772;-72
2022/06/28 12:07:33;;;;;;;18.13;14.87;;;;;;;;;;761554;183;634347;-72
2022/06/28 12:09:58;;;;;;;13.40;12.20;;;;;;;;;;767306;183;635406;-72
2022/06/28 12:12:24;;;;;;;13.13;11.93;;;;;;;;;;756558;184;623817;-74
2022/06/28 12:14:50;;;;;;;16.47;13.50;;;;;;;;;;763896;181;919071;-73
2022/06/28 12:17:16;;;;;;;13.80;12.50;;;;;;;;;;767637;182;901351;-72
2022/06/28 12:19:43;;;;;;;13.43;12.03;;;;;;;;;;772097;182;632980;-74
2022/06/28 12:22:08;;;;;;;12.77;11.57;;;;;;;;;;767926;182;624372;-72
2022/06/28 12:24:39;;;;;;;13.90;12.50;;;;;;;;;;766688;182;614893;-72
2022/06/28 12:27:06;;;;;;;10.68;9.77;;;;;;;;;;771744;182;623083;-71
2022/06/28 12:29:32;;;;;;;13.53;12.13;;;;;;;;;;766259;182;917590;-74
2022/06/28 12:31:58;;;;;;;13.10;11.80;;;;;;;;;;768846;183;636045;-71
2022/06/28 12:34:23;;;;;;;12.60;11.40;;;;;;;;;;768083;183;629631;-73
2022/06/28 12:36:49;;;;;;;12.53;10.73;;;;;;;;;;771226;183;635926;-70
2022/06/28 12:39:15;;;;;;;12.47;11.03;;;;;;;;;;766331;182;830619;-70
2022/06/28 12:41:41;;;;;;;12.57;11.37;;;;;;;;;;766649;183;635062;-70
2022/06/28 12:44:07;;;;;;;11.73;10.00;;;;;;;;;;769527;182;629555;-70
2022/06/28 12:46:33;;;;;;;15.03;11.20;;;;;;;;;;766242;183;919277;-73
2022/06/28 12:48:59;;;;;;;10.83;9.73;;;;;;;;;;769407;182;619032;-72
2022/06/28 12:51:25;;;;;;;10.90;8.77;;;;;;;;;;768980;181;815780;-72
2022/06/28 12:53:50;;;;;;;10.30;8.63;;;;;;;;;;765063;183;634246;-74
2022/06/28 12:56:16;;;;;;;9.73;8.83;;;;;;;;;;767397;182;628654;-71
2022/06/28 12:58:42;;;;;;;10.50;9.03;;;;;;;;;;763778;182;918229;-71
2022/06/28 13:01:08;;;;;;;9.60;8.70;;;;;;;;;;772273;182;616948;-72
2022/06/28 13:03:34;;;;;;;12.10;8.80;;;;;;;;;;766453;182;918849;-72
2022/06/28 13:06:00;;;;;;;9.97;9.07;;;;;;;;;;765481;182;905013;-71
2022/06/28 13:08:26;;;;;;;10.20;9.00;;;;;;;;;;766972;182;919157;-71
2022/06/28 13:10:51;;;;;;;10.20;9.20;;;;;;;;;;768078;183;638934;-71
2022/06/28 13:13:20;;;;;;;32.33;11.07;;;;;;;;;;766409;183;614752;-71
2022/06/28 13:15:43;;;;;;;14.10;10.23;;;;;;;;;;769039;183;667319;-71
2022/06/28 13:18:09;;;;;;;11.50;10.33;;;;;;;;;;768369;182;634098;-75
2022/06/28 13:20:35;;;;;;;9.90;8.67;;;;;;;;;;766478;183;656701;-70
2022/06/28 13:23:01;;;;;;;10.00;9.00;;;;;;;;;;765743;183;630893;-70
2022/06/28 13:25:27;;;;;;;12.03;8.53;;;;;;;;;;769407;183;636905;-73
2022/06/28 13:27:52;;;;;;;9.00;8.20;;;;;;;;;;764854;182;1021177;-72
2022/06/28 13:30:18;;;;;;;10.20;9.13;;;;;;;;;;767041;182;636271;-72
2022/06/28 13:32:44;;;;;;;9.73;8.83;;;;;;;;;;772530;182;621209;-72
2022/06/28 13:35:11;;;;;;;10.00;9.10;;;;;;;;;;763363;182;918845;-72
2022/06/28 13:37:37;;;;;;;9.98;8.98;;;;;;;;;;764068;183;919710;-72
2022/06/28 13:40:04;;;;;;;10.50;8.57;;;;;;;;;;772222;182;618208;-69
2022/06/28 13:42:30;;;;;;;10.03;9.07;;;;;;;;;;766231;182;918796;-70
2022/06/28 13:44:55;;;;;;;11.70;9.70;;;;;;;;;;767395;182;909341;-70
2022/06/28 13:47:21;;;;;;;9.50;8.43;;;;;;;;;;764049;182;914009;-70
2022/06/28 13:49:47;;;;;;;11.40;8.77;;;;;;;;;;770365;182;634908;-71
2022/06/28 13:52:13;;;;;;;9.37;7.77;;;;;;;;;;765988;182;847052;-74
2022/06/28 13:54:39;;;;;;;9.93;8.93;;;;;;;;;;763835;182;915167;-71
2022/06/28 13:57:05;;;;;;;9.27;7.90;;;;;;;;;;772203;183;625996;-70
2022/06/28 13:59:31;;;;;;;8.53;7.73;;;;;;;;;;769582;182;631521;-72
2022/06/28 14:01:57;;;;;;;8.50;7.70;;;;;;;;;;768316;182;670819;-73
2022/06/28 14:04:23;;;;;;;11.23;8.00;;;;;;;;;;770951;182;918971;-70
2022/06/28 14:06:48;;;;;;;8.80;7.90;;;;;;;;;;764656;183;917573;-71
2022/06/28 14:09:14;;;;;;;8.37;7.57;;;;;;;;;;766089;182;623787;-73
2022/06/28 14:11:40;;;;;;;8.30;7.50;;;;;;;;;;765209;183;857200;-70
2022/06/28 14:14:06;;;;;;;7.53;6.80;;;;;;;;;;761380;184;919026;-70
2022/06/28 14:16:32;;;;;;;9.30;7.70;;;;;;;;;;765767;181;918903;-72
2022/06/28 14:18:58;;;;;;;8.20;7.33;;;;;;;;;;763115;183;919524;-70
2022/06/28 14:21:24;;;;;;;8.70;7.17;;;;;;;;;;770614;182;620797;-72
2022/06/28 14:23:50;;;;;;;11.97;8.23;;;;;;;;;;765568;182;919389;-70
2022/06/28 14:26:16;;;;;;;10.67;7.80;;;;;;;;;;767200;182;900656;-73
2022/06/28 14:28:42;;;;;;;10.20;8.13;;;;;;;;;;770914;182;621242;-72
2022/06/28 14:31:08;;;;;;;10.37;7.70;;;;;;;;;;763064;182;919343;-71
2022/06/28 14:33:33;;;;;;;7.97;7.17;;;;;;;;;;767796;182;643985;-71
2022/06/28 14:36:00;;;;;;;8.70;7.90;;;;;;;;;;766145;182;914821;-70
2022/06/28 14:38:25;;;;;;;8.30;7.50;;;;;;;;;;776348;178;917568;-72
2022/06/28 14:40:51;;;;;;;7.40;6.70;;;;;;;;;;762460;183;919092;-69
2022/06/28 14:43:17;;;;;;;10.33;7.63;;;;;;;;;;763478;182;1021458;-71